Terminal Aerodrome Forecast
Issued by NWS Kansas City/Pleasant Hill, MO

Home | Current Version | Previous Version | Text Only | Print | Product List | Glossary On
Versions: 1 2 3 4 5 6 7 8 9 10 11 12 13 14 15 16
026
FTUS43 KEAX 181135
TAFMCI
TAF
KMCI 181135Z 1812/1912 31017G27KT P6SM SCT025 BKN045
      TEMPO 1813/1814 BKN025
     FM181400 31018G29KT P6SM OVC020
     FM181700 32019G30KT P6SM BKN040
     FM190200 32012KT P6SM BKN035=

USA.gov is the U.S. government's official web portal to all federal, state and local government web resources and services.